sensor_id;sensor_type;location;lat;lon;timestamp;pressure;altitude;pressure_sealevel;temperature;humidity
61014;BME280;46899;47.542;19.082;2023-03-18T00:01:45;100964.34;;;1.45;71.68
61014;BME280;46899;47.542;19.082;2023-03-18T00:04:48;100967.72;;;1.43;71.23
61014;BME280;46899;47.542;19.082;2023-03-18T00:07:50;100961.72;;;1.41;72.27
61014;BME280;46899;47.542;19.082;2023-03-18T00:10:54;100953.03;;;1.28;72.08
61014;BME280;46899;47.542;19.082;2023-03-18T00:13:56;100958.16;;;1.28;73.22
61014;BME280;46899;47.542;19.082;2023-03-18T00:16:59;100949.53;;;1.20;73.81
61014;BME280;46899;47.542;19.082;2023-03-18T00:20:03;100952.81;;;1.08;74.40
61014;BME280;46899;47.542;19.082;2023-03-18T00:23:07;100948.38;;;0.98;74.79
61014;BME280;46899;47.542;19.082;2023-03-18T00:26:10;100948.28;;;0.92;74.67
61014;BME280;46899;47.542;19.082;2023-03-18T00:29:15;100947.62;;;1.07;74.65
61014;BME280;46899;47.542;19.082;2023-03-18T00:32:17;100939.91;;;1.02;74.79
61014;BME280;46899;47.542;19.082;2023-03-18T00:35:20;100939.91;;;1.02;75.60
61014;BME280;46899;47.542;19.082;2023-03-18T00:38:22;100948.44;;;1.01;76.53
61014;BME280;46899;47.542;19.082;2023-03-18T00:41:26;100943.31;;;1.01;76.68
61014;BME280;46899;47.542;19.082;2023-03-18T00:44:30;100942.41;;;0.99;77.40
61014;BME280;46899;47.542;19.082;2023-03-18T00:47:33;100943.34;;;1.04;78.86
61014;BME280;46899;47.542;19.082;2023-03-18T00:50:37;100939.84;;;0.99;80.13
61014;BME280;46899;47.542;19.082;2023-03-18T00:53:40;100937.44;;;1.10;80.35
61014;BME280;46899;47.542;19.082;2023-03-18T00:56:43;100940.81;;;1.06;80.28
61014;BME280;46899;47.542;19.082;2023-03-18T00:59:47;100946.75;;;1.05;81.63
61014;BME280;46899;47.542;19.082;2023-03-18T01:02:49;100942.44;;;1.01;82.59
61014;BME280;46899;47.542;19.082;2023-03-18T01:05:52;100943.44;;;1.12;83.03
61014;BME280;46899;47.542;19.082;2023-03-18T01:08:55;100935.59;;;1.00;84.24
61014;BME280;46899;47.542;19.082;2023-03-18T01:11:57;100929.69;;;1.05;85.38
61014;BME280;46899;47.542;19.082;2023-03-18T01:15:00;100924.56;;;1.05;85.45
61014;BME280;46899;47.542;19.082;2023-03-18T01:18:03;100925.28;;;0.95;87.65
61014;BME280;46899;47.542;19.082;2023-03-18T01:21:06;100918.53;;;1.00;87.11
61014;BME280;46899;47.542;19.082;2023-03-18T01:24:10;100910.72;;;0.91;86.64
61014;BME280;46899;47.542;19.082;2023-03-18T01:27:12;100909.03;;;0.92;86.27
61014;BME280;46899;47.542;19.082;2023-03-18T01:30:16;100904.63;;;0.83;85.68
61014;BME280;46899;47.542;19.082;2023-03-18T01:33:18;100911.44;;;0.80;85.78
61014;BME280;46899;47.542;19.082;2023-03-18T01:36:21;100904.47;;;0.71;86.77
61014;BME280;46899;47.542;19.082;2023-03-18T01:39:28;100898.41;;;0.66;86.66
61014;BME280;46899;47.542;19.082;2023-03-18T01:42:31;100905.19;;;0.61;86.84
61014;BME280;46899;47.542;19.082;2023-03-18T01:45:33;100901.84;;;0.65;87.03
61014;BME280;46899;47.542;19.082;2023-03-18T01:48:37;100900.84;;;0.57;87.31
61014;BME280;46899;47.542;19.082;2023-03-18T01:51:42;100888.94;;;0.57;87.17
61014;BME280;46899;47.542;19.082;2023-03-18T01:54:47;100888.81;;;0.50;87.73
61014;BME280;46899;47.542;19.082;2023-03-18T01:57:50;100882.75;;;0.42;87.94
61014;BME280;46899;47.542;19.082;2023-03-18T02:00:56;100892.09;;;0.40;88.17
61014;BME280;46899;47.542;19.082;2023-03-18T02:04:01;100892.84;;;0.34;88.50
61014;BME280;46899;47.542;19.082;2023-03-18T02:07:05;100887.84;;;0.42;87.27
61014;BME280;46899;47.542;19.082;2023-03-18T02:10:31;100883.63;;;0.44;86.24
61014;BME280;46899;47.542;19.082;2023-03-18T02:13:37;100882.62;;;0.36;86.38
61014;BME280;46899;47.542;19.082;2023-03-18T02:16:45;100879.19;;;0.32;86.28
61014;BME280;46899;47.542;19.082;2023-03-18T02:23:23;100876.50;;;0.23;85.73
61014;BME280;46899;47.542;19.082;2023-03-18T02:29:30;100879.06;;;0.23;86.07
61014;BME280;46899;47.542;19.082;2023-03-18T02:32:34;100876.38;;;0.16;87.00
61014;BME280;46899;47.542;19.082;2023-03-18T02:35:39;100881.56;;;0.22;86.73
61014;BME280;46899;47.542;19.082;2023-03-18T02:38:44;100875.50;;;0.14;87.70
61014;BME280;46899;47.542;19.082;2023-03-18T02:41:48;100880.63;;;0.17;87.71
61014;BME280;46899;47.542;19.082;2023-03-18T02:44:51;100874.56;;;0.09;88.07
61014;BME280;46899;47.542;19.082;2023-03-18T02:48:10;100881.44;;;0.13;89.13
61014;BME280;46899;47.542;19.082;2023-03-18T02:51:16;100883.84;;;0.04;90.38
61014;BME280;46899;47.542;19.082;2023-03-18T02:54:23;100882.91;;;-0.03;91.20
61014;BME280;46899;47.542;19.082;2023-03-18T02:57:26;100888.97;;;0.02;91.86
61014;BME280;46899;47.542;19.082;2023-03-18T03:00:30;100886.22;;;-0.07;92.81
61014;BME280;46899;47.542;19.082;2023-03-18T03:03:34;100893.81;;;-0.13;92.68
61014;BME280;46899;47.542;19.082;2023-03-18T03:06:37;100892.78;;;-0.23;92.77
61014;BME280;46899;47.542;19.082;2023-03-18T03:09:42;100891.91;;;-0.26;93.26
61014;BME280;46899;47.542;19.082;2023-03-18T03:12:44;100886.00;;;-0.22;93.86
61014;BME280;46899;47.542;19.082;2023-03-18T03:15:49;100878.19;;;-0.30;94.90
61014;BME280;46899;47.542;19.082;2023-03-18T03:18:53;100888.34;;;-0.33;95.69
61014;BME280;46899;47.542;19.082;2023-03-18T03:21:55;100900.31;;;-0.30;95.28
61014;BME280;46899;47.542;19.082;2023-03-18T03:24:59;100889.25;;;-0.31;95.50
61014;BME280;46899;47.542;19.082;2023-03-18T03:28:03;100891.03;;;-0.27;94.96
61014;BME280;46899;47.542;19.082;2023-03-18T03:31:05;100894.37;;;-0.31;94.98
61014;BME280;46899;47.542;19.082;2023-03-18T03:34:09;100898.56;;;-0.33;94.57
61014;BME280;46899;47.542;19.082;2023-03-18T03:37:13;100895.84;;;-0.42;95.47
61014;BME280;46899;47.542;19.082;2023-03-18T03:40:16;100905.03;;;-0.51;96.00
61014;BME280;46899;47.542;19.082;2023-03-18T03:43:19;100905.91;;;-0.52;96.78
61014;BME280;46899;47.542;19.082;2023-03-18T03:46:22;100902.56;;;-0.47;97.03
61014;BME280;46899;47.542;19.082;2023-03-18T03:49:25;100906.97;;;-0.40;96.36
61014;BME280;46899;47.542;19.082;2023-03-18T03:52:28;100915.56;;;-0.38;95.71
61014;BME280;46899;47.542;19.082;2023-03-18T03:55:31;100915.31;;;-0.50;96.27
61014;BME280;46899;47.542;19.082;2023-03-18T03:58:35;100905.34;;;-0.35;95.85
61014;BME280;46899;47.542;19.082;2023-03-18T04:01:38;100908.47;;;-0.51;95.85
61014;BME280;46899;47.542;19.082;2023-03-18T04:04:42;100909.50;;;-0.41;96.09
61014;BME280;46899;47.542;19.082;2023-03-18T04:07:47;100910.06;;;-0.56;96.27
61014;BME280;46899;47.542;19.082;2023-03-18T04:10:50;100907.50;;;-0.57;96.51
61014;BME280;46899;47.542;19.082;2023-03-18T04:13:53;100905.81;;;-0.57;96.71
61014;BME280;46899;47.542;19.082;2023-03-18T04:16:56;100908.41;;;-0.54;95.96
61014;BME280;46899;47.542;19.082;2023-03-18T04:19:59;100917.06;;;-0.47;95.36
61014;BME280;46899;47.542;19.082;2023-03-18T04:23:03;100911.91;;;-0.49;94.57
61014;BME280;46899;47.542;19.082;2023-03-18T04:26:05;100922.09;;;-0.52;94.41
61014;BME280;46899;47.542;19.082;2023-03-18T04:29:08;100919.34;;;-0.61;94.57
61014;BME280;46899;47.542;19.082;2023-03-18T04:32:11;100930.34;;;-0.65;94.55
61014;BME280;46899;47.542;19.082;2023-03-18T04:35:14;100926.03;;;-0.68;94.61
61014;BME280;46899;47.542;19.082;2023-03-18T04:38:18;100927.88;;;-0.62;94.91
61014;BME280;46899;47.542;19.082;2023-03-18T04:41:23;100931.91;;;-0.73;95.39
61014;BME280;46899;47.542;19.082;2023-03-18T04:44:26;100936.06;;;-0.78;95.52
61014;BME280;46899;47.542;19.082;2023-03-18T04:47:29;100929.31;;;-0.75;94.58
61014;BME280;46899;47.542;19.082;2023-03-18T04:50:33;100944.19;;;-0.54;91.58
61014;BME280;46899;47.542;19.082;2023-03-18T04:53:37;100944.59;;;-0.33;88.26
61014;BME280;46899;47.542;19.082;2023-03-18T04:56:40;100946.34;;;-0.30;86.93
61014;BME280;46899;47.542;19.082;2023-03-18T04:59:44;100950.69;;;-0.26;85.37
61014;BME280;46899;47.542;19.082;2023-03-18T05:02:48;100952.31;;;-0.28;85.22
61014;BME280;46899;47.542;19.082;2023-03-18T05:05:51;100954.81;;;-0.33;85.31
61014;BME280;46899;47.542;19.082;2023-03-18T05:08:55;100948.00;;;-0.32;85.48
61014;BME280;46899;47.542;19.082;2023-03-18T05:11:58;100955.87;;;-0.22;84.23
61014;BME280;46899;47.542;19.082;2023-03-18T05:15:01;100951.91;;;-0.05;83.64
61014;BME280;46899;47.542;19.082;2023-03-18T05:18:04;100955.47;;;0.05;82.93
61014;BME280;46899;47.542;19.082;2023-03-18T05:21:08;100960.03;;;0.21;82.36
61014;BME280;46899;47.542;19.082;2023-03-18T05:24:12;100962.84;;;0.38;81.52
61014;BME280;46899;47.542;19.082;2023-03-18T05:27:15;100969.88;;;0.49;81.15
61014;BME280;46899;47.542;19.082;2023-03-18T05:30:20;100966.53;;;0.55;80.92
61014;BME280;46899;47.542;19.082;2023-03-18T05:33:22;100972.78;;;0.72;80.56
61014;BME280;46899;47.542;19.082;2023-03-18T05:36:25;100970.34;;;0.80;80.37
61014;BME280;46899;47.542;19.082;2023-03-18T05:39:29;100972.19;;;0.91;79.82
61014;BME280;46899;47.542;19.082;2023-03-18T05:42:33;100971.56;;;1.07;79.46
61014;BME280;46899;47.542;19.082;2023-03-18T05:45:47;100978.59;;;1.23;77.92
61014;BME280;46899;47.542;19.082;2023-03-18T05:48:51;100972.91;;;1.49;76.76
61014;BME280;46899;47.542;19.082;2023-03-18T05:51:54;100983.38;;;1.64;76.12
61014;BME280;46899;47.542;19.082;2023-03-18T05:54:59;100976.81;;;1.90;75.28
61014;BME280;46899;47.542;19.082;2023-03-18T05:58:03;100974.44;;;2.10;74.42
61014;BME280;46899;47.542;19.082;2023-03-18T06:01:06;100978.03;;;2.28;73.28
61014;BME280;46899;47.542;19.082;2023-03-18T06:04:09;100981.59;;;2.50;72.14
61014;BME280;46899;47.542;19.082;2023-03-18T06:07:12;100983.88;;;3.43;68.50
61014;BME280;46899;47.542;19.082;2023-03-18T06:10:15;100985.72;;;5.13;61.30
61014;BME280;46899;47.542;19.082;2023-03-18T06:13:19;100982.09;;;8.74;49.60
61014;BME280;46899;47.542;19.082;2023-03-18T06:16:23;100977.81;;;10.74;42.12
61014;BME280;46899;47.542;19.082;2023-03-18T06:19:26;100978.53;;;10.07;41.78
61014;BME280;46899;47.542;19.082;2023-03-18T06:22:30;100981.75;;;10.88;41.23
61014;BME280;46899;47.542;19.082;2023-03-18T06:25:33;100980.84;;;13.39;36.17
61014;BME280;46899;47.542;19.082;2023-03-18T06:28:36;100986.69;;;16.13;31.10
61014;BME280;46899;47.542;19.082;2023-03-18T06:31:40;100988.00;;;15.86;29.93
61014;BME280;46899;47.542;19.082;2023-03-18T06:34:44;100986.59;;;13.48;32.86
61014;BME280;46899;47.542;19.082;2023-03-18T06:37:47;100989.16;;;10.71;37.83
61014;BME280;46899;47.542;19.082;2023-03-18T06:40:50;100996.25;;;8.57;42.58
61014;BME280;46899;47.542;19.082;2023-03-18T06:43:53;100996.25;;;7.30;46.34
61014;BME280;46899;47.542;19.082;2023-03-18T06:46:56;100997.75;;;6.67;49.49
61014;BME280;46899;47.542;19.082;2023-03-18T06:49:59;101003.75;;;7.53;47.66
61014;BME280;46899;47.542;19.082;2023-03-18T06:53:03;101009.75;;;8.74;44.32
61014;BME280;46899;47.542;19.082;2023-03-18T06:56:07;101004.59;;;10.04;41.14
61014;BME280;46899;47.542;19.082;2023-03-18T06:59:12;101022.09;;;9.54;41.61
61014;BME280;46899;47.542;19.082;2023-03-18T07:02:15;101014.50;;;9.45;41.76
61014;BME280;46899;47.542;19.082;2023-03-18T07:05:19;101011.41;;;10.48;40.39
61014;BME280;46899;47.542;19.082;2023-03-18T07:08:27;101012.47;;;12.28;36.16
61014;BME280;46899;47.542;19.082;2023-03-18T07:11:30;101010.91;;;14.20;32.46
61014;BME280;46899;47.542;19.082;2023-03-18T07:14:33;101011.84;;;14.41;31.43
61014;BME280;46899;47.542;19.082;2023-03-18T07:17:37;101012.87;;;14.36;30.89
61014;BME280;46899;47.542;19.082;2023-03-18T07:20:40;101017.38;;;15.17;29.85
61014;BME280;46899;47.542;19.082;2023-03-18T07:23:43;101010.84;;;15.05;29.55
61014;BME280;46899;47.542;19.082;2023-03-18T07:26:45;101019.53;;;13.29;32.20
61014;BME280;46899;47.542;19.082;2023-03-18T07:29:48;101018.91;;;11.58;35.30
61014;BME280;46899;47.542;19.082;2023-03-18T07:32:51;101016.66;;;11.77;35.10
61014;BME280;46899;47.542;19.082;2023-03-18T07:35:55;101011.72;;;12.24;33.81
61014;BME280;46899;47.542;19.082;2023-03-18T07:38:57;101021.84;;;12.61;33.68
61014;BME280;46899;47.542;19.082;2023-03-18T07:42:01;101020.03;;;13.63;31.71
61014;BME280;46899;47.542;19.082;2023-03-18T07:45:05;101020.28;;;14.69;30.37
61014;BME280;46899;47.542;19.082;2023-03-18T07:48:09;101020.78;;;15.78;28.88
61014;BME280;46899;47.542;19.082;2023-03-18T07:51:11;101023.56;;;17.00;27.02
61014;BME280;46899;47.542;19.082;2023-03-18T07:54:14;101017.34;;;18.17;24.94
61014;BME280;46899;47.542;19.082;2023-03-18T07:57:17;101030.13;;;16.39;27.24
61014;BME280;46899;47.542;19.082;2023-03-18T08:00:20;101024.16;;;16.35;27.37
61014;BME280;46899;47.542;19.082;2023-03-18T08:03:23;101038.00;;;17.43;26.42
61014;BME280;46899;47.542;19.082;2023-03-18T08:06:26;101023.53;;;18.00;25.36
61014;BME280;46899;47.542;19.082;2023-03-18T08:09:29;101024.06;;;19.13;24.31
61014;BME280;46899;47.542;19.082;2023-03-18T08:12:31;101032.28;;;18.63;24.87
61014;BME280;46899;47.542;19.082;2023-03-18T08:15:53;101025.16;;;17.37;26.29
61014;BME280;46899;47.542;19.082;2023-03-18T08:18:57;101018.31;;;15.34;28.95
61014;BME280;46899;47.542;19.082;2023-03-18T08:22:00;101019.13;;;14.96;29.30
61014;BME280;46899;47.542;19.082;2023-03-18T08:25:02;101018.66;;;14.86;29.14
61014;BME280;46899;47.542;19.082;2023-03-18T08:28:05;101014.91;;;14.28;30.44
61014;BME280;46899;47.542;19.082;2023-03-18T08:31:08;101007.63;;;13.92;30.84
61014;BME280;46899;47.542;19.082;2023-03-18T08:34:11;101012.41;;;13.81;31.89
61014;BME280;46899;47.542;19.082;2023-03-18T08:37:15;101003.84;;;15.26;29.59
61014;BME280;46899;47.542;19.082;2023-03-18T08:40:17;101001.28;;;14.42;30.34
61014;BME280;46899;47.542;19.082;2023-03-18T08:43:20;101010.56;;;17.15;27.14
61014;BME280;46899;47.542;19.082;2023-03-18T08:46:23;101000.81;;;20.97;22.19
61014;BME280;46899;47.542;19.082;2023-03-18T08:49:26;100999.72;;;19.38;22.89
61014;BME280;46899;47.542;19.082;2023-03-18T08:52:29;100999.81;;;16.13;26.69
61014;BME280;46899;47.542;19.082;2023-03-18T08:55:34;100999.28;;;14.04;29.61
61014;BME280;46899;47.542;19.082;2023-03-18T08:58:38;101006.13;;;12.63;32.27
61014;BME280;46899;47.542;19.082;2023-03-18T09:01:42;101003.06;;;11.95;33.60
61014;BME280;46899;47.542;19.082;2023-03-18T09:04:44;100996.81;;;12.00;33.96
61014;BME280;46899;47.542;19.082;2023-03-18T09:07:48;101004.72;;;12.25;34.01
61014;BME280;46899;47.542;19.082;2023-03-18T09:10:52;101007.03;;;12.08;34.05
61014;BME280;46899;47.542;19.082;2023-03-18T09:13:55;100986.81;;;12.14;34.37
61014;BME280;46899;47.542;19.082;2023-03-18T09:16:58;100989.37;;;11.88;34.42
61014;BME280;46899;47.542;19.082;2023-03-18T09:20:01;100996.75;;;12.03;33.65
61014;BME280;46899;47.542;19.082;2023-03-18T09:23:04;100990.97;;;11.92;34.05
61014;BME280;46899;47.542;19.082;2023-03-18T09:26:06;100986.41;;;12.00;33.77
61014;BME280;46899;47.542;19.082;2023-03-18T09:29:09;100984.97;;;12.18;34.04
61014;BME280;46899;47.542;19.082;2023-03-18T09:32:11;100986.22;;;12.34;34.32
61014;BME280;46899;47.542;19.082;2023-03-18T09:35:14;100978.50;;;12.29;34.21
61014;BME280;46899;47.542;19.082;2023-03-18T09:38:18;100979.22;;;11.79;35.26
61014;BME280;46899;47.542;19.082;2023-03-18T09:44:30;100976.00;;;12.26;35.39
61014;BME280;46899;47.542;19.082;2023-03-18T09:51:17;100969.84;;;12.55;35.66
61014;BME280;46899;47.542;19.082;2023-03-18T09:54:34;100969.22;;;12.47;34.96
61014;BME280;46899;47.542;19.082;2023-03-18T09:57:38;100968.69;;;12.64;35.36
61014;BME280;46899;47.542;19.082;2023-03-18T10:00:43;100977.47;;;12.61;35.18
61014;BME280;46899;47.542;19.082;2023-03-18T10:03:48;100965.06;;;12.42;35.62
61014;BME280;46899;47.542;19.082;2023-03-18T10:07:00;100969.16;;;12.49;35.52
61014;BME280;46899;47.542;19.082;2023-03-18T10:10:28;100965.97;;;12.67;35.05
61014;BME280;46899;47.542;19.082;2023-03-18T10:13:30;100957.12;;;12.71;35.26
61014;BME280;46899;47.542;19.082;2023-03-18T10:16:40;100961.72;;;12.36;34.66
61014;BME280;46899;47.542;19.082;2023-03-18T10:19:50;100957.91;;;12.73;34.68
61014;BME280;46899;47.542;19.082;2023-03-18T10:22:57;100946.06;;;12.36;35.55
61014;BME280;46899;47.542;19.082;2023-03-18T10:26:04;100940.97;;;12.84;34.13
61014;BME280;46899;47.542;19.082;2023-03-18T10:29:20;100940.81;;;12.89;34.44
61014;BME280;46899;47.542;19.082;2023-03-18T10:38:53;100936.34;;;13.40;33.46
61014;BME280;46899;47.542;19.082;2023-03-18T10:41:57;100943.38;;;13.61;33.64
61014;BME280;46899;47.542;19.082;2023-03-18T10:45:45;100950.16;;;13.67;32.93
61014;BME280;46899;47.542;19.082;2023-03-18T10:48:35;100942.16;;;13.25;33.68
61014;BME280;46899;47.542;19.082;2023-03-18T10:51:44;100937.03;;;13.22;33.92
61014;BME280;46899;47.542;19.082;2023-03-18T10:54:48;100943.06;;;13.24;33.99
61014;BME280;46899;47.542;19.082;2023-03-18T10:57:53;100924.13;;;13.18;34.28
61014;BME280;46899;47.542;19.082;2023-03-18T11:00:56;100919.44;;;13.27;34.28
61014;BME280;46899;47.542;19.082;2023-03-18T11:03:59;100920.25;;;13.04;34.51
61014;BME280;46899;47.542;19.082;2023-03-18T11:07:03;100910.88;;;13.45;33.00
61014;BME280;46899;47.542;19.082;2023-03-18T11:10:11;100908.37;;;13.65;33.05
61014;BME280;46899;47.542;19.082;2023-03-18T11:13:15;100897.84;;;13.67;33.32
61014;BME280;46899;47.542;19.082;2023-03-18T11:19:37;100900.00;;;14.01;32.56
61014;BME280;46899;47.542;19.082;2023-03-18T11:22:43;100892.94;;;13.81;32.66
61014;BME280;46899;47.542;19.082;2023-03-18T11:25:46;100892.06;;;13.81;32.86
61014;BME280;46899;47.542;19.082;2023-03-18T11:28:53;100890.19;;;13.62;33.65
61014;BME280;46899;47.542;19.082;2023-03-18T11:31:57;100884.31;;;14.01;32.25
61014;BME280;46899;47.542;19.082;2023-03-18T11:35:00;100876.38;;;13.59;33.33
61014;BME280;46899;47.542;19.082;2023-03-18T11:38:04;100868.31;;;13.65;32.89
61014;BME280;46899;47.542;19.082;2023-03-18T11:41:21;100870.06;;;13.64;33.59
61014;BME280;46899;47.542;19.082;2023-03-18T11:44:29;100861.44;;;13.84;33.36
61014;BME280;46899;47.542;19.082;2023-03-18T11:47:32;100858.53;;;14.12;32.70
61014;BME280;46899;47.542;19.082;2023-03-18T11:51:22;100853.75;;;13.58;33.93
61014;BME280;46899;47.542;19.082;2023-03-18T12:00:44;100858.22;;;13.78;34.08
61014;BME280;46899;47.542;19.082;2023-03-18T12:16:50;100843.72;;;14.32;33.95
61014;BME280;46899;47.542;19.082;2023-03-18T12:19:59;100823.56;;;14.34;33.78
61014;BME280;46899;47.542;19.082;2023-03-18T12:23:17;100834.13;;;14.33;34.07
61014;BME280;46899;47.542;19.082;2023-03-18T12:29:36;100824.03;;;14.02;34.88
61014;BME280;46899;47.542;19.082;2023-03-18T12:35:56;100824.69;;;13.87;35.77
61014;BME280;46899;47.542;19.082;2023-03-18T12:39:16;100826.63;;;13.82;35.85
61014;BME280;46899;47.542;19.082;2023-03-18T12:45:42;100825.03;;;14.00;35.84
61014;BME280;46899;47.542;19.082;2023-03-18T12:58:36;100819.13;;;14.36;36.05
61014;BME280;46899;47.542;19.082;2023-03-18T13:05:12;100819.41;;;14.09;36.65
61014;BME280;46899;47.542;19.082;2023-03-18T13:08:35;100808.12;;;13.87;36.99
61014;BME280;46899;47.542;19.082;2023-03-18T13:18:14;100809.38;;;13.56;38.13
61014;BME280;46899;47.542;19.082;2023-03-18T13:21:19;100814.62;;;13.56;38.44
61014;BME280;46899;47.542;19.082;2023-03-18T13:24:39;100814.13;;;13.47;38.37
61014;BME280;46899;47.542;19.082;2023-03-18T13:31:18;100816.06;;;13.42;38.64
61014;BME280;46899;47.542;19.082;2023-03-18T13:34:59;100813.16;;;13.26;39.10
61014;BME280;46899;47.542;19.082;2023-03-18T13:44:21;100813.81;;;13.33;39.22
61014;BME280;46899;47.542;19.082;2023-03-18T13:47:30;100801.34;;;13.39;39.10
61014;BME280;46899;47.542;19.082;2023-03-18T13:50:35;100794.62;;;13.76;38.83
61014;BME280;46899;47.542;19.082;2023-03-18T13:53:39;100795.75;;;13.70;38.88
61014;BME280;46899;47.542;19.082;2023-03-18T13:56:45;100792.09;;;13.74;38.71
61014;BME280;46899;47.542;19.082;2023-03-18T13:59:48;100786.09;;;13.92;38.59
61014;BME280;46899;47.542;19.082;2023-03-18T14:03:01;100785.50;;;13.86;38.95
61014;BME280;46899;47.542;19.082;2023-03-18T14:15:35;100783.47;;;13.07;40.95
61014;BME280;46899;47.542;19.082;2023-03-18T14:18:39;100772.84;;;13.12;40.91
61014;BME280;46899;47.542;19.082;2023-03-18T14:21:43;100770.53;;;13.26;40.76
61014;BME280;46899;47.542;19.082;2023-03-18T14:28:15;100758.78;;;13.36;40.40
61014;BME280;46899;47.542;19.082;2023-03-18T14:31:25;100753.03;;;13.49;40.20
61014;BME280;46899;47.542;19.082;2023-03-18T14:34:31;100745.78;;;13.56;39.80
61014;BME280;46899;47.542;19.082;2023-03-18T14:37:35;100754.63;;;13.52;39.74
61014;BME280;46899;47.542;19.082;2023-03-18T14:40:55;100747.91;;;13.25;40.21
61014;BME280;46899;47.542;19.082;2023-03-18T14:44:05;100738.53;;;13.41;39.92
61014;BME280;46899;47.542;19.082;2023-03-18T14:50:39;100741.50;;;13.10;40.28
61014;BME280;46899;47.542;19.082;2023-03-18T14:53:49;100742.09;;;13.18;40.51
61014;BME280;46899;47.542;19.082;2023-03-18T14:56:54;100741.16;;;13.19;40.19
61014;BME280;46899;47.542;19.082;2023-03-18T15:00:00;100730.53;;;13.00;40.76
61014;BME280;46899;47.542;19.082;2023-03-18T15:03:12;100736.19;;;13.13;40.43
61014;BME280;46899;47.542;19.082;2023-03-18T15:06:19;100724.56;;;13.20;40.45
61014;BME280;46899;47.542;19.082;2023-03-18T15:09:27;100719.28;;;13.22;40.24
61014;BME280;46899;47.542;19.082;2023-03-18T15:12:32;100723.50;;;13.26;40.13
61014;BME280;46899;47.542;19.082;2023-03-18T15:15:35;100729.03;;;13.18;40.46
61014;BME280;46899;47.542;19.082;2023-03-18T15:18:38;100732.84;;;13.31;40.11
61014;BME280;46899;47.542;19.082;2023-03-18T15:21:41;100725.91;;;13.30;40.21
61014;BME280;46899;47.542;19.082;2023-03-18T15:24:45;100729.06;;;13.17;40.81
61014;BME280;46899;47.542;19.082;2023-03-18T15:27:48;100721.37;;;13.14;40.84
61014;BME280;46899;47.542;19.082;2023-03-18T15:30:52;100720.03;;;13.25;40.76
61014;BME280;46899;47.542;19.082;2023-03-18T15:34:10;100724.31;;;13.04;40.88
61014;BME280;46899;47.542;19.082;2023-03-18T15:37:34;100715.34;;;12.88;41.13
61014;BME280;46899;47.542;19.082;2023-03-18T15:40:45;100716.91;;;12.71;41.64
61014;BME280;46899;47.542;19.082;2023-03-18T15:43:48;100725.41;;;12.76;41.78
61014;BME280;46899;47.542;19.082;2023-03-18T15:46:53;100729.97;;;12.71;42.12
61014;BME280;46899;47.542;19.082;2023-03-18T15:49:58;100723.62;;;12.55;42.60
61014;BME280;46899;47.542;19.082;2023-03-18T15:56:15;100742.44;;;12.40;43.24
61014;BME280;46899;47.542;19.082;2023-03-18T15:59:19;100746.16;;;12.32;43.61
61014;BME280;46899;47.542;19.082;2023-03-18T16:02:25;100737.78;;;12.24;43.93
61014;BME280;46899;47.542;19.082;2023-03-18T16:05:28;100743.09;;;12.21;43.97
61014;BME280;46899;47.542;19.082;2023-03-18T16:08:31;100757.16;;;12.17;44.28
61014;BME280;46899;47.542;19.082;2023-03-18T16:11:34;100752.25;;;12.08;44.60
61014;BME280;46899;47.542;19.082;2023-03-18T16:14:39;100761.94;;;12.05;44.74
61014;BME280;46899;47.542;19.082;2023-03-18T16:17:43;100758.84;;;11.94;44.82
61014;BME280;46899;47.542;19.082;2023-03-18T16:20:47;100764.50;;;11.80;45.10
61014;BME280;46899;47.542;19.082;2023-03-18T16:23:50;100762.03;;;11.77;45.11
61014;BME280;46899;47.542;19.082;2023-03-18T16:26:53;100763.25;;;11.65;45.52
61014;BME280;46899;47.542;19.082;2023-03-18T16:29:56;100760.19;;;11.53;45.92
61014;BME280;46899;47.542;19.082;2023-03-18T16:32:59;100757.66;;;11.50;46.06
61014;BME280;46899;47.542;19.082;2023-03-18T16:36:02;100756.28;;;11.40;46.55
61014;BME280;46899;47.542;19.082;2023-03-18T16:39:18;100757.09;;;11.40;46.52
61014;BME280;46899;47.542;19.082;2023-03-18T16:42:22;100766.88;;;11.34;46.67
61014;BME280;46899;47.542;19.082;2023-03-18T16:45:26;100765.56;;;11.21;47.26
61014;BME280;46899;47.542;19.082;2023-03-18T16:48:32;100757.91;;;11.16;47.51
61014;BME280;46899;47.542;19.082;2023-03-18T16:51:34;100759.94;;;11.05;48.02
61014;BME280;46899;47.542;19.082;2023-03-18T16:54:37;100760.09;;;11.00;48.15
61014;BME280;46899;47.542;19.082;2023-03-18T16:57:45;100758.78;;;10.86;48.81
61014;BME280;46899;47.542;19.082;2023-03-18T17:00:49;100759.78;;;10.82;49.11
61014;BME280;46899;47.542;19.082;2023-03-18T17:03:52;100761.53;;;10.81;49.08
61014;BME280;46899;47.542;19.082;2023-03-18T17:06:56;100760.81;;;10.76;49.55
61014;BME280;46899;47.542;19.082;2023-03-18T17:09:58;100765.47;;;10.67;49.90
61014;BME280;46899;47.542;19.082;2023-03-18T17:13:02;100764.62;;;10.65;50.00
61014;BME280;46899;47.542;19.082;2023-03-18T17:16:11;100772.87;;;10.50;50.35
61014;BME280;46899;47.542;19.082;2023-03-18T17:19:16;100771.63;;;10.32;51.33
61014;BME280;46899;47.542;19.082;2023-03-18T17:22:23;100763.44;;;10.15;51.70
61014;BME280;46899;47.542;19.082;2023-03-18T17:25:27;100768.47;;;10.21;51.84
61014;BME280;46899;47.542;19.082;2023-03-18T17:28:44;100770.16;;;9.88;52.88
61014;BME280;46899;47.542;19.082;2023-03-18T17:31:47;100771.16;;;9.83;53.19
61014;BME280;46899;47.542;19.082;2023-03-18T17:34:50;100773.94;;;9.75;54.09
61014;BME280;46899;47.542;19.082;2023-03-18T17:37:53;100773.47;;;9.59;54.70
61014;BME280;46899;47.542;19.082;2023-03-18T17:40:55;100780.00;;;9.76;54.25